Time;durP1;ratioP1;P1;durP2;ratioP2;P2;SDS_P1;SDS_P2;PMS_P1;PMS_P2;Temp;Humidity;BMP_temperature;BMP_pressure;BME280_temperature;BME280_humidity;BME280_pressure;Samples;Min_cycle;Max_cycle;Signal;HPM_P1;HPM_P2
2021/06/04 00:00:14;;;;;;;2.85;2.50;;;16.80;82.50;;;;;;5031404;28;20083;-78
2021/06/04 00:02:41;;;;;;;3.72;2.63;;;16.80;82.70;;;;;;5010516;28;20103;-78
2021/06/04 00:05:08;;;;;;;3.13;2.83;;;16.80;83.10;;;;;;5031588;28;20042;-77
2021/06/04 00:07:34;;;;;;;4.03;3.30;;;16.80;82.90;;;;;;5032156;28;20601;-77
2021/06/04 00:10:00;;;;;;;3.88;2.97;;;16.80;83.30;;;;;;5018550;28;20434;-77
2021/06/04 00:12:26;;;;;;;3.22;2.75;;;16.80;82.50;;;;;;5027442;28;20103;-78
2021/06/04 00:14:52;;;;;;;3.53;2.88;;;16.70;80.70;;;;;;5026231;28;20041;-78
2021/06/04 00:17:23;;;;;;;3.28;2.80;;;16.70;81.30;;;;;;5031087;28;20114;-78
2021/06/04 00:19:52;;;;;;;3.17;2.83;;;16.70;83.20;;;;;;5029932;28;20037;-78
2021/06/04 00:22:24;;;;;;;3.72;2.95;;;16.70;82.70;;;;;;5030623;28;20026;-78
2021/06/04 00:24:53;;;;;;;3.83;3.03;;;16.70;82.30;;;;;;5013614;28;20420;-77
2021/06/04 00:27:20;;;;;;;3.00;2.70;;;16.80;81.90;;;;;;5029141;28;20624;-77
2021/06/04 00:29:46;;;;;;;3.35;2.70;;;16.80;78.10;;;;;;5028135;28;20033;-78
2021/06/04 00:32:15;;;;;;;3.17;2.30;;;16.90;77.10;;;;;;5014570;28;20033;-78
2021/06/04 00:34:41;;;;;;;3.10;2.58;;;17.00;74.30;;;;;;5011224;28;20034;-78
2021/06/04 00:37:07;;;;;;;3.75;3.45;;;17.10;78.70;;;;;;5018509;28;20033;-77
2021/06/04 00:39:35;;;;;;;2.58;2.38;;;17.10;80.00;;;;;;5025905;28;20041;-78
2021/06/04 00:42:09;;;;;;;5.03;2.28;;;17.10;81.20;;;;;;5027937;28;20033;-78
2021/06/04 00:44:36;;;;;;;2.50;2.30;;;17.00;81.00;;;;;;5026274;28;20496;-77
2021/06/04 00:47:06;;;;;;;3.72;2.53;;;17.00;82.90;;;;;;5023249;28;20109;-78
2021/06/04 00:49:33;;;;;;;2.72;2.42;;;17.00;82.70;;;;;;5023260;28;20037;-78
2021/06/04 00:52:15;;;;;;;2.95;2.15;;;16.90;82.30;;;;;;5018874;28;20056;-78
2021/06/04 00:54:43;;;;;;;2.58;2.38;;;16.90;82.20;;;;;;5024379;28;20110;-78
2021/06/04 00:57:11;;;;;;;2.30;2.10;;;17.00;81.80;;;;;;5029857;28;20040;-78
2021/06/04 00:59:39;;;;;;;2.65;2.17;;;16.90;82.70;;;;;;5006973;28;20044;-78
2021/06/04 01:02:16;;;;;;;3.08;2.10;;;16.90;83.30;;;;;;5025544;28;20041;-78
2021/06/04 01:04:44;;;;;;;2.53;2.33;;;16.90;84.10;;;;;;5018709;28;20083;-77
2021/06/04 01:07:23;;;;;;;2.28;2.08;;;16.90;83.70;;;;;;4994421;28;20065;-78
2021/06/04 01:10:11;;;;;;;2.33;2.13;;;16.90;82.80;;;;;;5026352;28;20044;-77
2021/06/04 01:12:55;;;;;;;2.45;2.25;;;16.90;82.90;;;;;;5028046;28;20105;-78
2021/06/04 01:15:48;;;;;;;3.20;2.00;;;16.90;84.40;;;;;;5014797;28;20041;-78
2021/06/04 01:18:41;;;;;;;2.50;2.10;;;16.90;85.60;;;;;;5016379;28;20147;-77
2021/06/04 01:21:25;;;;;;;2.40;2.20;;;16.80;85.10;;;;;;5018142;28;20029;-77
2021/06/04 01:24:00;;;;;;;2.80;2.28;;;16.80;85.10;;;;;;4998160;28;20038;-77
2021/06/04 01:26:47;;;;;;;2.83;2.63;;;16.80;84.40;;;;;;5015175;28;20044;-77
2021/06/04 01:29:20;;;;;;;2.90;2.60;;;16.70;84.70;;;;;;5030151;28;20498;-77
2021/06/04 01:31:51;;;;;;;3.83;2.60;;;16.80;84.20;;;;;;5014102;28;20030;-78
2021/06/04 01:34:26;;;;;;;2.63;2.42;;;16.80;88.00;;;;;;5014200;28;20081;-77
2021/06/04 01:37:02;;;;;;;2.60;2.40;;;16.80;85.60;;;;;;5033486;28;20037;-77
2021/06/04 01:39:41;;;;;;;2.60;2.40;;;16.80;85.90;;;;;;5034732;28;20037;-77
2021/06/04 01:42:14;;;;;;;3.95;2.85;;;16.80;86.10;;;;;;5023224;28;20116;-77
2021/06/04 01:45:04;;;;;;;2.80;2.55;;;16.90;86.00;;;;;;5033790;28;20026;-77
2021/06/04 01:47:41;;;;;;;5.05;2.53;;;16.80;86.50;;;;;;5014389;28;20029;-77
2021/06/04 01:50:31;;;;;;;2.75;2.53;;;16.80;85.90;;;;;;5016792;28;20060;-77
2021/06/04 01:53:03;;;;;;;4.38;2.75;;;16.70;87.00;;;;;;5020637;28;20569;-77
2021/06/04 01:55:37;;;;;;;2.88;2.60;;;16.70;86.20;;;;;;5012966;28;20042;-77
2021/06/04 01:58:08;;;;;;;2.47;2.28;;;16.70;82.50;;;;;;5019696;28;20034;-77
2021/06/04 02:00:52;;;;;;;2.92;1.80;;;16.80;82.30;;;;;;5012842;28;20030;-77
2021/06/04 02:03:23;;;;;;;;;;;16.80;83.00;;;;;;5012988;28;20679;-77
2021/06/04 02:05:56;;;;;;;3.85;2.92;;;16.80;84.10;;;;;;5025607;28;20408;-78
2021/06/04 02:08:37;;;;;;;2.88;2.67;;;16.80;82.90;;;;;;5027394;28;20030;-78
2021/06/04 02:11:09;;;;;;;2.92;2.47;;;16.80;81.80;;;;;;5029474;28;20029;-78
2021/06/04 02:13:41;;;;;;;2.63;2.40;;;16.90;82.80;;;;;;5019032;28;20030;-78
2021/06/04 02:16:27;;;;;;;2.72;2.53;;;16.90;82.20;;;;;;5013019;28;20030;-78
2021/06/04 02:19:13;;;;;;;2.53;2.33;;;16.90;80.20;;;;;;5019841;28;20410;-78
2021/06/04 02:21:59;;;;;;;2.45;2.25;;;17.00;78.50;;;;;;5026554;28;20449;-77
2021/06/04 02:24:46;;;;;;;3.25;2.20;;;16.90;77.80;;;;;;5032223;28;20033;-78
2021/06/04 02:27:12;;;;;;;2.95;2.67;;;17.00;75.90;;;;;;5020131;28;20029;-78
2021/06/04 02:29:48;;;;;;;2.58;2.38;;;17.10;75.60;;;;;;5012994;28;20033;-77
2021/06/04 02:32:19;;;;;;;2.67;2.35;;;17.10;75.00;;;;;;5021969;28;20084;-78
2021/06/04 02:34:53;;;;;;;3.10;2.72;;;17.10;75.30;;;;;;5012636;28;20037;-78
2021/06/04 02:37:22;;;;;;;2.40;2.20;;;17.10;76.10;;;;;;5027915;28;20490;-77
2021/06/04 02:39:57;;;;;;;2.67;2.47;;;17.10;75.80;;;;;;5015293;28;20129;-78
2021/06/04 02:42:33;;;;;;;3.43;2.50;;;17.10;77.00;;;;;;5015006;28;20437;-78
2021/06/04 02:45:22;;;;;;;4.45;2.47;;;17.10;75.60;;;;;;5028631;28;20397;-78
2021/06/04 02:47:52;;;;;;;3.75;2.50;;;17.10;76.70;;;;;;5015562;28;20033;-78
2021/06/04 02:50:30;;;;;;;4.93;2.70;;;17.00;76.90;;;;;;5013222;28;20025;-78
2021/06/04 02:53:13;;;;;;;2.40;2.20;;;17.00;78.70;;;;;;5020447;28;20028;-78
2021/06/04 02:56:01;;;;;;;2.40;2.20;;;17.00;80.00;;;;;;5027792;28;20100;-78
2021/06/04 02:58:31;;;;;;;2.53;2.30;;;17.00;80.30;;;;;;5028614;28;20029;-78
2021/06/04 03:01:00;;;;;;;2.80;2.60;;;17.00;82.50;;;;;;5031919;28;20029;-78
2021/06/04 03:03:29;;;;;;;2.53;2.33;;;17.00;84.10;;;;;;5032084;28;20025;-78
2021/06/04 03:05:56;;;;;;;3.60;2.53;;;17.00;85.50;;;;;;5031380;28;20072;-78
2021/06/04 03:08:24;;;;;;;3.95;2.63;;;17.00;84.80;;;;;;5008654;28;20037;-78
2021/06/04 03:10:54;;;;;;;2.75;2.53;;;17.00;84.40;;;;;;5011411;28;20164;-77
2021/06/04 03:13:30;;;;;;;2.63;2.42;;;16.90;83.70;;;;;;5025248;28;20057;-77
2021/06/04 03:16:02;;;;;;;2.90;2.67;;;16.90;84.60;;;;;;5032314;28;20033;-77
2021/06/04 03:18:38;;;;;;;2.67;2.17;;;16.80;85.70;;;;;;5008534;28;20092;-77
2021/06/04 03:21:13;;;;;;;2.70;2.35;;;16.80;85.20;;;;;;5018392;28;20421;-77
2021/06/04 03:23:40;;;;;;;4.38;2.40;;;16.80;86.40;;;;;;5031449;28;20120;-77
2021/06/04 03:26:16;;;;;;;2.90;2.70;;;16.80;86.30;;;;;;5020897;28;20100;-77
2021/06/04 03:28:45;;;;;;;2.88;2.45;;;16.80;85.50;;;;;;5031391;28;20247;-77
2021/06/04 03:31:12;;;;;;;2.90;2.60;;;16.80;87.00;;;;;;4998804;28;20064;-77
2021/06/04 03:33:39;;;;;;;2.95;2.65;;;16.70;86.10;;;;;;5017419;28;20117;-77
2021/06/04 03:36:19;;;;;;;2.75;2.50;;;16.70;86.80;;;;;;5011151;28;20072;-77
2021/06/04 03:38:45;;;;;;;3.05;2.75;;;16.70;88.30;;;;;;5021478;28;20513;-77
2021/06/04 03:41:16;;;;;;;3.75;3.03;;;16.70;87.90;;;;;;5028421;28;20419;-77
2021/06/04 03:43:48;;;;;;;3.42;2.97;;;16.70;88.30;;;;;;5002654;28;20033;-77
2021/06/04 03:46:15;;;;;;;3.38;2.70;;;16.70;87.30;;;;;;5013663;28;20526;-77
2021/06/04 03:48:41;;;;;;;3.40;3.10;;;16.90;82.40;;;;;;5018445;28;20114;-77
2021/06/04 03:51:18;;;;;;;2.90;2.70;;;16.80;81.90;;;;;;5024947;28;20057;-77
2021/06/04 03:53:44;;;;;;;2.88;2.60;;;16.80;83.50;;;;;;5028475;28;20026;-77
2021/06/04 03:56:12;;;;;;;4.53;2.90;;;16.80;83.70;;;;;;5020628;28;20063;-77
2021/06/04 03:58:38;;;;;;;3.25;2.95;;;16.70;87.30;;;;;;5028889;28;20051;-77
2021/06/04 04:01:11;;;;;;;3.60;3.17;;;16.70;87.10;;;;;;5031916;28;20410;-77
2021/06/04 04:03:37;;;;;;;3.40;3.00;;;16.70;88.50;;;;;;5031990;28;20116;-77
2021/06/04 04:06:03;;;;;;;3.13;2.80;;;16.80;88.30;;;;;;5031517;28;20045;-77
2021/06/04 04:08:29;;;;;;;4.40;3.28;;;16.80;90.20;;;;;;5018631;28;20033;-77
2021/06/04 04:10:57;;;;;;;2.90;2.70;;;16.80;90.40;;;;;;5018261;28;20100;-77
2021/06/04 04:13:25;;;;;;;3.30;3.00;;;16.70;87.60;;;;;;4997844;28;20044;-77
2021/06/04 04:15:53;;;;;;;3.40;3.10;;;16.60;87.70;;;;;;5024079;28;20779;-77
2021/06/04 04:18:18;;;;;;;3.25;2.97;;;16.60;87.20;;;;;;5022664;28;20036;-77
2021/06/04 04:20:48;;;;;;;3.35;2.97;;;16.60;87.10;;;;;;5032685;28;20021;-77
2021/06/04 04:23:17;;;;;;;3.30;2.85;;;16.60;86.20;;;;;;5031384;28;20551;-78
2021/06/04 04:25:44;;;;;;;3.22;2.92;;;16.60;85.40;;;;;;5029715;28;20036;-77
2021/06/04 04:28:23;;;;;;;4.13;3.08;;;16.60;86.10;;;;;;5030533;28;20052;-77
2021/06/04 04:30:49;;;;;;;3.05;2.55;;;16.70;86.60;;;;;;5030717;28;20556;-77
2021/06/04 04:33:16;;;;;;;2.80;2.60;;;16.70;89.00;;;;;;5031151;28;20030;-77
2021/06/04 04:35:42;;;;;;;4.68;3.28;;;16.70;90.70;;;;;;5000277;28;20029;-77
2021/06/04 04:38:09;;;;;;;5.25;3.72;;;16.70;86.10;;;;;;5025843;28;20083;-77
2021/06/04 04:40:38;;;;;;;4.13;3.10;;;16.70;86.20;;;;;;5030016;28;20021;-77
2021/06/04 04:43:06;;;;;;;3.20;2.90;;;16.70;85.10;;;;;;5031503;28;20025;-77
2021/06/04 04:45:33;;;;;;;4.55;2.83;;;16.70;84.80;;;;;;5030403;28;20045;-77
2021/06/04 04:48:00;;;;;;;3.25;2.95;;;16.80;84.10;;;;;;5031018;28;20040;-77
2021/06/04 04:50:27;;;;;;;3.40;3.00;;;16.80;84.50;;;;;;5031350;28;20032;-77
2021/06/04 04:52:55;;;;;;;4.20;3.53;;;16.80;84.00;;;;;;5022369;28;20112;-77
2021/06/04 04:55:22;;;;;;;4.13;2.95;;;16.80;84.90;;;;;;5030489;28;20502;-77
2021/06/04 04:57:48;;;;;;;4.20;3.80;;;16.80;85.90;;;;;;5031036;28;20038;-77
2021/06/04 05:00:19;;;;;;;4.03;3.55;;;16.80;83.40;;;;;;5026847;28;20033;-77
2021/06/04 05:02:45;;;;;;;18.15;10.73;;;16.80;86.20;;;;;;5011392;28;20026;-77
2021/06/04 05:05:12;;;;;;;13.52;8.20;;;16.70;84.80;;;;;;5027714;28;20398;-77
2021/06/04 05:07:38;;;;;;;7.15;5.85;;;16.70;85.70;;;;;;5030857;28;20026;-77
2021/06/04 05:10:05;;;;;;;5.03;3.80;;;16.70;84.90;;;;;;5027079;28;20040;-77
2021/06/04 05:12:31;;;;;;;4.88;3.60;;;16.80;85.90;;;;;;5024106;28;20040;-77
2021/06/04 05:14:57;;;;;;;4.25;3.72;;;16.80;85.50;;;;;;5008773;28;20030;-77
2021/06/04 05:17:22;;;;;;;3.90;3.40;;;16.80;84.30;;;;;;5014387;28;20038;-78
2021/06/04 05:19:48;;;;;;;4.28;3.53;;;16.90;84.50;;;;;;5008721;28;20445;-77
2021/06/04 05:22:15;;;;;;;3.40;3.10;;;16.80;84.80;;;;;;5003516;28;20034;-77
2021/06/04 05:24:41;;;;;;;3.63;3.30;;;16.70;84.90;;;;;;5030209;28;20100;-77
2021/06/04 05:27:08;;;;;;;4.05;3.65;;;16.80;85.60;;;;;;5019852;28;20041;-77
2021/06/04 05:29:34;;;;;;;4.38;3.42;;;16.80;86.20;;;;;;5024093;28;20057;-77
2021/06/04 05:32:00;;;;;;;3.45;3.15;;;16.80;86.70;;;;;;5022294;28;20045;-77
2021/06/04 05:34:26;;;;;;;3.67;3.30;;;16.90;87.30;;;;;;5028936;28;20037;-77
2021/06/04 05:36:52;;;;;;;3.33;3.03;;;16.90;90.00;;;;;;5017523;28;20034;-77
2021/06/04 05:39:24;;;;;;;3.88;3.40;;;16.90;90.00;;;;;;5024420;28;20034;-77
2021/06/04 05:41:52;;;;;;;3.30;2.78;;;16.80;90.50;;;;;;5026172;28;20025;-77
2021/06/04 05:44:21;;;;;;;4.57;4.03;;;16.90;91.10;;;;;;5028815;28;20044;-78
2021/06/04 05:46:49;;;;;;;5.88;3.80;;;16.90;91.70;;;;;;5013940;28;20026;-77
2021/06/04 05:49:15;;;;;;;3.63;3.33;;;17.00;92.00;;;;;;5028246;28;20048;-78
2021/06/04 05:51:41;;;;;;;5.00;3.72;;;17.00;90.50;;;;;;5031093;28;20041;-78
2021/06/04 05:54:07;;;;;;;4.53;3.28;;;17.00;90.30;;;;;;5023138;28;20038;-78
2021/06/04 05:56:33;;;;;;;4.88;3.70;;;17.10;90.50;;;;;;5030488;28;20452;-78
2021/06/04 05:58:59;;;;;;;4.10;3.70;;;17.10;90.80;;;;;;5033721;28;20029;-78
2021/06/04 06:01:31;;;;;;;5.00;3.28;;;17.20;91.40;;;;;;5033764;28;20061;-77
2021/06/04 06:03:57;;;;;;;4.60;3.67;;;17.20;91.90;;;;;;5032028;28;20052;-78
2021/06/04 06:06:23;;;;;;;5.03;3.83;;;17.30;93.10;;;;;;5033094;28;20029;-78
2021/06/04 06:08:49;;;;;;;4.43;3.60;;;17.40;94.20;;;;;;5034687;28;20251;-78
2021/06/04 06:11:22;;;;;;;4.05;3.75;;;17.60;94.10;;;;;;5019759;28;20128;-78
2021/06/04 06:13:56;;;;;;;4.65;3.58;;;17.80;95.20;;;;;;5028390;28;20045;-78
2021/06/04 06:16:22;;;;;;;7.07;3.95;;;17.90;95.50;;;;;;5022923;28;20410;-78
2021/06/04 06:18:48;;;;;;;5.03;3.67;;;18.10;95.00;;;;;;5034107;28;20048;-78
2021/06/04 06:21:14;;;;;;;3.85;3.50;;;18.20;95.30;;;;;;5030532;28;20025;-78
2021/06/04 06:23:41;;;;;;;4.65;3.90;;;18.20;94.60;;;;;;5025278;28;20057;-78
2021/06/04 06:26:15;;;;;;;6.53;3.75;;;18.30;94.50;;;;;;5034122;28;20025;-77
2021/06/04 06:28:42;;;;;;;5.85;3.95;;;18.20;95.50;;;;;;5028063;28;20044;-77
2021/06/04 06:31:12;;;;;;;4.63;3.83;;;18.20;96.10;;;;;;5017961;28;20498;-77
2021/06/04 06:33:38;;;;;;;4.68;3.83;;;18.10;97.20;;;;;;5015465;28;20026;-77
2021/06/04 06:36:09;;;;;;;4.30;3.35;;;18.00;95.80;;;;;;5030264;28;20129;-77
2021/06/04 06:38:36;;;;;;;4.30;3.90;;;17.90;97.20;;;;;;5026719;28;20038;-77
2021/06/04 06:41:04;;;;;;;5.47;4.28;;;17.80;99.90;;;;;;5027867;28;20079;-77
2021/06/04 06:43:32;;;;;;;5.68;4.07;;;17.60;99.90;;;;;;5026946;28;20064;-77
2021/06/04 06:46:00;;;;;;;5.55;4.43;;;17.50;99.90;;;;;;5021551;28;20030;-77
2021/06/04 06:48:26;;;;;;;8.23;5.13;;;17.30;99.90;;;;;;5026708;28;20072;-77
2021/06/04 06:50:54;;;;;;;6.93;3.97;;;17.30;99.90;;;;;;5025231;28;20040;-77
2021/06/04 06:53:22;;;;;;;4.38;3.97;;;17.20;99.90;;;;;;5028477;28;20080;-77
2021/06/04 06:55:48;;;;;;;7.10;4.82;;;17.20;99.90;;;;;;5026802;28;20417;-77
2021/06/04 06:58:14;;;;;;;6.50;4.30;;;17.10;99.90;;;;;;5031418;28;20029;-77
2021/06/04 07:00:43;;;;;;;6.10;4.63;;;17.10;99.90;;;;;;5027403;28;20081;-77
2021/06/04 07:03:11;;;;;;;8.15;4.82;;;17.10;99.90;;;;;;5033335;28;20083;-77
2021/06/04 07:05:38;;;;;;;6.28;4.80;;;17.10;99.90;;;;;;5033452;28;20033;-79
2021/06/04 07:08:05;;;;;;;6.82;4.63;;;17.00;99.90;;;;;;5033472;28;20034;-78
2021/06/04 07:10:32;;;;;;;4.47;4.07;;;17.00;99.90;;;;;;5030687;28;20025;-78
2021/06/04 07:13:01;;;;;;;4.95;4.45;;;17.10;99.90;;;;;;5035380;28;20030;-78
2021/06/04 07:15:28;;;;;;;5.07;4.57;;;17.10;99.90;;;;;;5035562;28;20026;-79
2021/06/04 07:17:57;;;;;;;4.95;4.40;;;17.20;99.90;;;;;;5038038;28;20063;-79
2021/06/04 07:20:23;;;;;;;5.45;3.90;;;17.30;99.90;;;;;;5035896;28;20064;-78
2021/06/04 07:22:51;;;;;;;6.55;4.40;;;17.50;99.90;;;;;;5026567;28;20038;-77
2021/06/04 07:25:17;;;;;;;4.38;3.88;;;17.50;99.90;;;;;;5018484;28;20036;-78
2021/06/04 07:27:48;;;;;;;5.30;4.80;;;17.60;99.90;;;;;;5025852;28;20046;-78
2021/06/04 07:30:17;;;;;;;5.35;4.25;;;17.70;99.90;;;;;;5027054;28;20038;-80
2021/06/04 07:32:43;;;;;;;5.47;3.80;;;17.90;99.90;;;;;;5037617;28;20646;-79
2021/06/04 07:35:14;;;;;;;3.85;3.35;;;18.00;99.90;;;;;;5030156;28;20060;-78
2021/06/04 07:37:40;;;;;;;4.07;3.63;;;18.00;99.90;;;;;;5034984;28;20049;-78
2021/06/04 07:40:09;;;;;;;4.63;3.67;;;18.00;99.90;;;;;;5035965;28;20029;-78
2021/06/04 07:42:34;;;;;;;8.43;4.10;;;18.20;99.90;;;;;;5031672;28;20110;-79
2021/06/04 07:45:01;;;;;;;4.10;3.70;;;18.30;99.90;;;;;;5034132;28;20037;-79
2021/06/04 07:47:27;;;;;;;4.38;3.55;;;18.40;99.90;;;;;;5035468;28;20108;-79
2021/06/04 07:49:52;;;;;;;7.07;4.38;;;18.50;99.90;;;;;;5034248;28;20100;-78
2021/06/04 07:52:18;;;;;;;3.92;3.53;;;18.30;99.90;;;;;;5031057;28;20083;-79
2021/06/04 07:54:44;;;;;;;4.18;3.80;;;18.40;99.90;;;;;;5025147;28;20394;-78
2021/06/04 07:57:09;;;;;;;4.78;4.28;;;18.20;99.90;;;;;;5032509;28;20079;-78
2021/06/04 07:59:35;;;;;;;4.15;3.70;;;18.30;99.90;;;;;;5015414;28;20037;-77
2021/06/04 08:02:01;;;;;;;4.75;4.00;;;18.50;99.90;;;;;;5036649;28;20425;-78
2021/06/04 08:04:27;;;;;;;3.75;3.45;;;18.70;99.90;;;;;;5030407;28;20068;-78
2021/06/04 08:06:53;;;;;;;4.22;3.70;;;18.80;99.90;;;;;;5026311;28;20042;-78
2021/06/04 08:09:19;;;;;;;4.70;4.22;;;19.20;99.90;;;;;;5027419;28;20064;-78
2021/06/04 08:11:48;;;;;;;3.63;3.33;;;19.50;99.90;;;;;;5032185;28;20048;-78
2021/06/04 08:14:19;;;;;;;3.22;2.92;;;19.50;99.90;;;;;;5033807;28;20049;-78
2021/06/04 08:16:47;;;;;;;4.25;3.30;;;19.60;99.90;;;;;;5028187;28;20033;-78
2021/06/04 08:19:14;;;;;;;4.10;3.45;;;19.70;99.90;;;;;;5025851;28;20033;-78
2021/06/04 08:21:47;;;;;;;3.40;3.10;;;19.80;99.90;;;;;;5040147;28;20433;-79
2021/06/04 08:24:17;;;;;;;4.20;3.08;;;19.80;99.90;;;;;;5029466;28;20029;-78
2021/06/04 08:26:43;;;;;;;3.67;3.38;;;20.00;99.90;;;;;;5032498;28;20025;-79
2021/06/04 08:29:10;;;;;;;3.55;3.25;;;20.00;99.90;;;;;;5034165;28;20477;-79
2021/06/04 08:31:36;;;;;;;3.20;2.90;;;20.10;99.90;;;;;;5032091;28;20533;-77
2021/06/04 08:34:03;;;;;;;3.75;2.60;;;20.20;99.90;;;;;;5013094;28;20517;-79
2021/06/04 08:36:33;;;;;;;3.67;3.13;;;20.00;99.90;;;;;;5027598;28;20461;-78
2021/06/04 08:39:01;;;;;;;4.57;2.75;;;19.90;99.90;;;;;;5034082;28;20133;-77
2021/06/04 08:41:45;;;;;;;3.08;2.75;;;19.70;99.90;;;;;;5030178;28;20114;-79
2021/06/04 08:44:37;;;;;;;4.20;2.97;;;19.70;99.90;;;;;;5032686;28;20060;-78
2021/06/04 08:47:17;;;;;;;3.33;3.05;;;19.90;99.90;;;;;;5029534;28;20103;-78
2021/06/04 08:50:04;;;;;;;5.72;2.88;;;20.00;99.90;;;;;;5029307;28;20033;-78
2021/06/04 08:52:54;;;;;;;5.47;2.90;;;20.10;99.90;;;;;;5031841;28;20048;-78
2021/06/04 08:55:41;;;;;;;2.85;2.50;;;20.20;99.90;;;;;;5032940;28;20033;-78
2021/06/04 08:58:40;;;;;;;2.70;2.50;;;20.40;99.90;;;;;;5032815;28;20025;-78
2021/06/04 09:01:12;;;;;;;3.10;2.80;;;20.30;99.90;;;;;;5026422;28;20029;-78
2021/06/04 09:04:05;;;;;;;3.33;2.88;;;20.40;99.90;;;;;;5026938;28;20049;-78
2021/06/04 09:07:04;;;;;;;3.90;2.97;;;20.30;99.90;;;;;;5024862;28;20045;-78
2021/06/04 09:09:45;;;;;;;2.47;2.25;;;20.20;99.90;;;;;;5021397;28;20418;-77
2021/06/04 09:12:16;;;;;;;2.97;2.38;;;19.90;99.90;;;;;;5013833;28;20029;-78
2021/06/04 09:14:44;;;;;;;4.90;2.92;;;20.00;99.90;;;;;;5029733;28;20026;-79
2021/06/04 09:17:30;;;;;;;5.15;2.90;;;20.00;99.90;;;;;;5030386;28;20137;-78
2021/06/04 09:20:22;;;;;;;3.53;3.00;;;20.20;99.90;;;;;;5029559;28;20034;-77
2021/06/04 09:22:57;;;;;;;3.28;2.78;;;20.50;99.90;;;;;;4984885;28;20123;-78
2021/06/04 09:25:25;;;;;;;3.88;2.67;;;20.70;99.90;;;;;;5025461;28;20033;-78
2021/06/04 09:28:13;;;;;;;3.35;2.70;;;20.90;99.90;;;;;;5027993;28;20126;-78
2021/06/04 09:30:49;;;;;;;2.70;2.50;;;21.00;99.90;;;;;;5034247;28;20049;-78
2021/06/04 09:33:26;;;;;;;2.63;2.42;;;21.20;99.90;;;;;;5037433;28;20053;-78
2021/06/04 09:36:04;;;;;;;3.83;2.75;;;21.20;99.90;;;;;;5040342;28;20033;-78
2021/06/04 09:38:53;;;;;;;3.30;3.00;;;21.40;99.90;;;;;;5040682;28;20048;-78
2021/06/04 09:41:25;;;;;;;3.03;2.67;;;21.50;99.90;;;;;;5033631;28;20052;-78
2021/06/04 09:44:21;;;;;;;4.03;2.78;;;21.80;99.90;;;;;;5032909;28;20026;-78
2021/06/04 09:47:06;;;;;;;2.90;2.70;;;21.80;99.10;;;;;;5035178;28;20044;-78
2021/06/04 09:49:41;;;;;;;4.03;2.90;;;21.80;99.10;;;;;;5034402;28;20114;-78
2021/06/04 09:52:33;;;;;;;5.47;2.80;;;21.70;99.00;;;;;;5032875;28;20038;-78
2021/06/04 09:55:21;;;;;;;2.78;2.58;;;21.60;99.40;;;;;;5032306;28;20037;-78
2021/06/04 09:57:56;;;;;;;3.08;2.78;;;21.60;98.10;;;;;;5033029;28;20486;-78
2021/06/04 10:00:30;;;;;;;4.72;2.58;;;21.60;98.90;;;;;;5035719;28;20052;-79
2021/06/04 10:03:27;;;;;;;3.03;2.83;;;21.50;99.30;;;;;;5032823;28;20034;-79
2021/06/04 10:06:06;;;;;;;3.55;2.85;;;21.50;99.80;;;;;;5034472;28;20029;-78
2021/06/04 10:08:52;;;;;;;4.20;3.38;;;21.60;99.90;;;;;;5030590;28;20084;-78
2021/06/04 10:11:22;;;;;;;2.72;2.53;;;21.50;99.90;;;;;;5008865;28;20129;-78
2021/06/04 10:13:50;;;;;;;3.58;2.83;;;21.40;99.30;;;;;;5033698;28;20033;-78
2021/06/04 10:16:28;;;;;;;3.30;3.00;;;21.60;99.70;;;;;;5029848;28;20033;-78
2021/06/04 10:18:55;;;;;;;3.85;2.60;;;21.70;98.00;;;;;;5029165;28;20063;-78
2021/06/04 10:21:31;;;;;;;4.55;3.05;;;21.70;99.90;;;;;;5023298;28;20053;-78
2021/06/04 10:24:01;;;;;;;3.20;3.00;;;21.80;99.20;;;;;;5028248;28;20034;-78
2021/06/04 10:26:38;;;;;;;2.38;2.17;;;21.90;98.50;;;;;;5029933;28;20033;-78
2021/06/04 10:29:04;;;;;;;3.42;3.13;;;22.10;98.00;;;;;;5011522;28;20116;-78
2021/06/04 10:31:40;;;;;;;3.15;2.85;;;22.30;97.70;;;;;;5036211;28;20730;-77
2021/06/04 10:34:55;;;;;;;2.97;2.72;;;22.30;96.30;;;;;;5026241;28;20120;-77
2021/06/04 10:37:49;;;;;;;3.83;2.92;;;22.40;97.50;;;;;;4998632;28;20041;-78
2021/06/04 10:40:19;;;;;;;4.03;3.03;;;22.70;99.90;;;;;;5032337;28;20150;-78
2021/06/04 10:42:59;;;;;;;3.50;3.17;;;23.00;99.20;;;;;;5032615;28;20076;-78
2021/06/04 10:45:34;;;;;;;3.50;3.20;;;23.20;98.70;;;;;;5029714;28;20036;-78
2021/06/04 10:48:26;;;;;;;2.83;2.63;;;23.10;98.10;;;;;;5028817;28;20033;-78
2021/06/04 10:51:01;;;;;;;3.90;2.72;;;22.90;96.90;;;;;;5033162;28;20056;-78
2021/06/04 10:53:52;;;;;;;3.10;2.80;;;22.90;97.20;;;;;;5035242;28;20030;-78
2021/06/04 10:56:34;;;;;;;3.05;2.55;;;23.10;98.70;;;;;;5038484;28;20038;-78
2021/06/04 10:59:18;;;;;;;3.40;2.55;;;23.20;94.90;;;;;;5029858;28;20029;-77
2021/06/04 11:01:59;;;;;;;3.35;2.88;;;23.00;95.70;;;;;;5044873;28;20029;-78
2021/06/04 11:05:10;;;;;;;3.00;2.70;;;23.10;95.70;;;;;;5039065;28;20163;-78
2021/06/04 11:08:08;;;;;;;2.63;2.42;;;23.30;96.20;;;;;;5031085;28;20038;-78
2021/06/04 11:10:43;;;;;;;5.45;3.00;;;23.50;96.00;;;;;;4989409;28;20046;-78
2021/06/04 11:13:43;;;;;;;2.83;2.60;;;23.40;96.40;;;;;;5035181;28;20092;-78
2021/06/04 11:16:50;;;;;;;2.53;2.33;;;23.40;92.80;;;;;;5037705;28;20060;-78
2021/06/04 11:19:40;;;;;;;3.28;2.40;;;23.30;93.00;;;;;;4974137;28;20425;-78
2021/06/04 11:22:14;;;;;;;2.85;2.65;;;23.50;94.70;;;;;;5038245;28;20053;-77
2021/06/04 11:24:59;;;;;;;3.88;2.30;;;23.40;91.90;;;;;;5041799;28;20057;-78
2021/06/04 11:27:32;;;;;;;2.78;2.58;;;23.40;92.70;;;;;;5043062;28;20025;-77
2021/06/04 11:30:00;;;;;;;3.63;2.58;;;23.30;91.90;;;;;;5039048;28;20040;-78
2021/06/04 11:32:36;;;;;;;2.78;2.50;;;23.30;91.90;;;;;;5033031;28;20480;-78
2021/06/04 11:35:09;;;;;;;2.70;2.50;;;23.20;91.90;;;;;;5033705;28;20029;-78
2021/06/04 11:37:44;;;;;;;2.55;2.35;;;23.10;92.70;;;;;;5032980;28;20025;-78
2021/06/04 11:40:15;;;;;;;2.95;2.67;;;23.30;93.60;;;;;;5032490;28;20512;-78
2021/06/04 11:42:51;;;;;;;3.85;2.65;;;23.30;93.00;;;;;;5041229;28;20021;-77
2021/06/04 11:45:19;;;;;;;3.28;2.80;;;23.30;91.60;;;;;;5039676;28;20754;-78
2021/06/04 11:47:45;;;;;;;2.85;2.45;;;23.40;91.40;;;;;;5042666;28;20021;-77
2021/06/04 11:50:21;;;;;;;3.03;2.70;;;23.50;91.80;;;;;;5040383;28;20064;-78
2021/06/04 11:52:47;;;;;;;4.32;2.53;;;23.50;91.30;;;;;;5042129;28;20038;-77
2021/06/04 11:55:19;;;;;;;2.92;2.72;;;23.70;92.30;;;;;;5043276;28;20044;-78
2021/06/04 11:57:53;;;;;;;3.80;2.67;;;23.70;92.30;;;;;;5042167;28;20044;-77
2021/06/04 12:00:25;;;;;;;2.78;2.20;;;23.80;91.20;;;;;;5042730;28;20022;-78
2021/06/04 12:02:53;;;;;;;2.83;2.63;;;24.00;90.20;;;;;;5045517;28;20025;-77
2021/06/04 12:05:19;;;;;;;2.40;2.20;;;23.90;89.10;;;;;;5044615;28;20051;-78
2021/06/04 12:07:45;;;;;;;2.63;2.30;;;23.80;91.20;;;;;;5044842;28;20021;-77
2021/06/04 12:10:14;;;;;;;3.00;2.80;;;23.90;90.10;;;;;;5044838;28;20022;-78
2021/06/04 12:12:57;;;;;;;2.88;2.58;;;23.80;89.80;;;;;;5044191;28;20040;-77
2021/06/04 12:15:22;;;;;;;3.83;2.33;;;23.80;89.20;;;;;;5041876;28;20489;-78
2021/06/04 12:17:49;;;;;;;3.60;2.40;;;23.80;88.80;;;;;;5042054;28;20493;-78
2021/06/04 12:20:21;;;;;;;2.20;2.05;;;24.00;89.00;;;;;;5041482;28;20056;-78
2021/06/04 12:22:52;;;;;;;3.03;2.50;;;24.30;88.90;;;;;;5042964;28;20085;-78
2021/06/04 12:25:37;;;;;;;2.40;2.20;;;24.40;89.80;;;;;;5039298;28;20048;-78
2021/06/04 12:28:09;;;;;;;2.55;2.35;;;24.60;84.60;;;;;;5043924;28;20025;-78
2021/06/04 12:30:54;;;;;;;3.75;2.63;;;24.50;87.30;;;;;;5042991;28;20031;-77
2021/06/04 12:33:43;;;;;;;3.03;2.30;;;24.70;87.30;;;;;;5042230;28;20034;-78
2021/06/04 12:36:44;;;;;;;2.00;1.80;;;24.80;86.40;;;;;;5043598;28;20486;-77
2021/06/04 12:39:22;;;;;;;2.10;2.00;;;25.00;83.80;;;;;;4967250;28;20042;-78
2021/06/04 12:41:48;;;;;;;2.95;2.33;;;25.10;79.30;;;;;;5024789;28;20791;-78
2021/06/04 12:44:14;;;;;;;2.50;2.30;;;25.10;79.80;;;;;;5040786;28;20029;-78
2021/06/04 12:46:46;;;;;;;2.25;2.15;;;24.80;77.90;;;;;;5038759;28;20036;-78
2021/06/04 12:49:13;;;;;;;2.60;2.30;;;24.70;81.40;;;;;;5037669;28;20037;-78
2021/06/04 12:51:48;;;;;;;2.85;2.50;;;24.70;81.90;;;;;;5022788;28;20037;-77
2021/06/04 12:54:25;;;;;;;2.53;2.33;;;24.90;75.00;;;;;;5032356;28;20037;-77
2021/06/04 12:56:57;;;;;;;2.15;2.00;;;25.00;76.20;;;;;;5037380;28;20104;-78
2021/06/04 12:59:27;;;;;;;1.85;1.75;;;25.00;71.10;;;;;;5030486;28;20033;-78
2021/06/04 13:02:08;;;;;;;2.47;2.28;;;24.90;75.70;;;;;;5036407;28;20073;-77
2021/06/04 13:04:41;;;;;;;2.00;1.90;;;25.00;71.70;;;;;;5036797;28;20047;-78
2021/06/04 13:07:15;;;;;;;3.90;1.80;;;24.70;72.00;;;;;;5039006;28;20029;-78
2021/06/04 13:09:55;;;;;;;1.90;1.80;;;24.60;69.40;;;;;;5043880;28;20038;-78
2021/06/04 13:12:26;;;;;;;2.40;2.20;;;24.70;74.40;;;;;;5042817;28;20276;-78
2021/06/04 13:14:53;;;;;;;2.63;2.17;;;24.80;75.00;;;;;;5043830;28;20036;-78
2021/06/04 13:17:22;;;;;;;2.00;1.90;;;24.90;74.90;;;;;;5039936;28;20060;-78